Wayside, West Virginia
Current Conditions -  °F | °C
As of 11:55 AM on Sunday 23 Nov 2014 (Local Time) from KLWB Reporting Station
Clear Clear  
Wind Chill: 42°   Ceiling: Unl
Heat Index: 45°   Visibility: 10mi
Dew Point: 27°   Wind: 6mph
Humidity: 50%   Direction: 30°NNE
Pressure: 30.1"   Gusts: NA
Location:  37.59°N, 80.69°W
Report Text: KLWB 231655Z AUTO 03005KT 10SM CLR 07/M03 A3010 RMK AO2 T00711028
Loading
Personal Weather Stations






























Interactive Weather Map New forecast layout! Learn more

10-Day Weather Forecast

Advertisements
Track Severe Weather on mobile